sensor_id;sensor_type;location;lat;lon;timestamp;P1;durP1;ratioP1;P2;durP2;ratioP2
67762;SDS011;54566;52.022;5.582;2023-08-06T00:01:40;6.22;;;3.90;;
67762;SDS011;54566;52.022;5.582;2023-08-06T00:04:06;6.78;;;3.92;;
67762;SDS011;54566;52.022;5.582;2023-08-06T00:06:32;7.43;;;3.90;;
67762;SDS011;54566;52.022;5.582;2023-08-06T00:08:58;5.00;;;3.80;;
67762;SDS011;54566;52.022;5.582;2023-08-06T00:11:24;6.07;;;4.00;;
67762;SDS011;54566;52.022;5.582;2023-08-06T00:13:50;5.85;;;3.72;;
67762;SDS011;54566;52.022;5.582;2023-08-06T00:16:16;13.35;;;4.75;;
67762;SDS011;54566;52.022;5.582;2023-08-06T00:18:43;8.20;;;4.15;;
67762;SDS011;54566;52.022;5.582;2023-08-06T00:21:09;6.18;;;4.05;;
67762;SDS011;54566;52.022;5.582;2023-08-06T00:23:37;5.80;;;4.15;;
67762;SDS011;54566;52.022;5.582;2023-08-06T00:26:03;5.88;;;3.70;;
67762;SDS011;54566;52.022;5.582;2023-08-06T00:28:29;8.95;;;4.28;;
67762;SDS011;54566;52.022;5.582;2023-08-06T00:30:55;8.25;;;4.03;;
67762;SDS011;54566;52.022;5.582;2023-08-06T00:33:21;6.43;;;4.30;;
67762;SDS011;54566;52.022;5.582;2023-08-06T00:35:47;9.98;;;4.85;;
67762;SDS011;54566;52.022;5.582;2023-08-06T00:38:13;7.43;;;4.75;;
67762;SDS011;54566;52.022;5.582;2023-08-06T00:40:39;7.68;;;4.57;;
67762;SDS011;54566;52.022;5.582;2023-08-06T00:43:06;7.55;;;4.40;;
67762;SDS011;54566;52.022;5.582;2023-08-06T00:45:33;7.72;;;4.60;;
67762;SDS011;54566;52.022;5.582;2023-08-06T00:48:00;9.57;;;4.35;;
67762;SDS011;54566;52.022;5.582;2023-08-06T00:50:26;7.57;;;4.82;;
67762;SDS011;54566;52.022;5.582;2023-08-06T00:52:52;7.55;;;4.38;;
67762;SDS011;54566;52.022;5.582;2023-08-06T00:55:19;10.70;;;5.18;;
67762;SDS011;54566;52.022;5.582;2023-08-06T00:57:45;8.35;;;4.35;;
67762;SDS011;54566;52.022;5.582;2023-08-06T01:00:11;5.65;;;3.97;;
67762;SDS011;54566;52.022;5.582;2023-08-06T01:02:37;9.07;;;4.43;;
67762;SDS011;54566;52.022;5.582;2023-08-06T01:05:03;7.22;;;4.75;;
67762;SDS011;54566;52.022;5.582;2023-08-06T01:15:35;12.25;;;4.40;;
67762;SDS011;54566;52.022;5.582;2023-08-06T01:18:03;9.43;;;4.13;;
67762;SDS011;54566;52.022;5.582;2023-08-06T01:20:30;11.02;;;4.57;;
67762;SDS011;54566;52.022;5.582;2023-08-06T01:22:57;7.55;;;3.97;;
67762;SDS011;54566;52.022;5.582;2023-08-06T01:25:25;9.43;;;4.30;;
67762;SDS011;54566;52.022;5.582;2023-08-06T01:27:51;11.35;;;4.20;;
67762;SDS011;54566;52.022;5.582;2023-08-06T01:32:48;5.43;;;4.22;;
67762;SDS011;54566;52.022;5.582;2023-08-06T01:35:15;10.40;;;4.68;;
67762;SDS011;54566;52.022;5.582;2023-08-06T01:37:41;10.73;;;4.45;;
67762;SDS011;54566;52.022;5.582;2023-08-06T01:40:11;8.02;;;5.00;;
67762;SDS011;54566;52.022;5.582;2023-08-06T01:42:38;8.48;;;5.00;;
67762;SDS011;54566;52.022;5.582;2023-08-06T01:45:05;12.05;;;4.75;;
67762;SDS011;54566;52.022;5.582;2023-08-06T01:47:31;9.00;;;5.45;;
67762;SDS011;54566;52.022;5.582;2023-08-06T01:49:57;15.00;;;5.22;;
67762;SDS011;54566;52.022;5.582;2023-08-06T01:52:23;10.43;;;6.03;;
67762;SDS011;54566;52.022;5.582;2023-08-06T01:54:49;10.05;;;6.20;;
67762;SDS011;54566;52.022;5.582;2023-08-06T01:57:15;10.57;;;6.70;;
67762;SDS011;54566;52.022;5.582;2023-08-06T01:59:41;13.85;;;7.35;;
67762;SDS011;54566;52.022;5.582;2023-08-06T02:02:07;12.35;;;6.40;;
67762;SDS011;54566;52.022;5.582;2023-08-06T02:04:33;15.25;;;7.82;;
67762;SDS011;54566;52.022;5.582;2023-08-06T02:06:59;10.63;;;6.93;;
67762;SDS011;54566;52.022;5.582;2023-08-06T02:09:25;11.80;;;7.85;;
67762;SDS011;54566;52.022;5.582;2023-08-06T02:11:51;11.40;;;7.68;;
67762;SDS011;54566;52.022;5.582;2023-08-06T02:14:17;11.27;;;7.20;;
67762;SDS011;54566;52.022;5.582;2023-08-06T02:16:43;10.85;;;7.38;;
67762;SDS011;54566;52.022;5.582;2023-08-06T02:19:09;11.25;;;7.50;;
67762;SDS011;54566;52.022;5.582;2023-08-06T02:21:35;12.32;;;7.78;;
67762;SDS011;54566;52.022;5.582;2023-08-06T02:24:01;11.57;;;7.47;;
67762;SDS011;54566;52.022;5.582;2023-08-06T02:26:27;11.88;;;7.90;;
67762;SDS011;54566;52.022;5.582;2023-08-06T02:28:53;11.98;;;7.70;;
67762;SDS011;54566;52.022;5.582;2023-08-06T02:31:19;16.67;;;7.43;;
67762;SDS011;54566;52.022;5.582;2023-08-06T02:33:45;10.63;;;7.78;;
67762;SDS011;54566;52.022;5.582;2023-08-06T02:36:11;11.75;;;6.88;;
67762;SDS011;54566;52.022;5.582;2023-08-06T02:38:37;11.70;;;6.88;;
67762;SDS011;54566;52.022;5.582;2023-08-06T02:41:04;12.63;;;6.95;;
67762;SDS011;54566;52.022;5.582;2023-08-06T02:43:30;9.25;;;6.40;;
67762;SDS011;54566;52.022;5.582;2023-08-06T02:45:56;12.95;;;6.70;;
67762;SDS011;54566;52.022;5.582;2023-08-06T02:48:25;8.15;;;6.15;;
67762;SDS011;54566;52.022;5.582;2023-08-06T02:50:51;9.82;;;6.28;;
67762;SDS011;54566;52.022;5.582;2023-08-06T02:53:17;9.95;;;6.82;;
67762;SDS011;54566;52.022;5.582;2023-08-06T02:55:46;12.85;;;7.55;;
67762;SDS011;54566;52.022;5.582;2023-08-06T02:58:13;9.65;;;6.97;;
67762;SDS011;54566;52.022;5.582;2023-08-06T03:00:39;11.00;;;7.13;;
67762;SDS011;54566;52.022;5.582;2023-08-06T03:03:05;9.45;;;6.55;;
67762;SDS011;54566;52.022;5.582;2023-08-06T03:05:31;10.57;;;7.00;;
67762;SDS011;54566;52.022;5.582;2023-08-06T03:07:57;10.20;;;6.20;;
67762;SDS011;54566;52.022;5.582;2023-08-06T03:10:23;10.88;;;6.63;;
67762;SDS011;54566;52.022;5.582;2023-08-06T03:12:49;10.32;;;6.75;;
67762;SDS011;54566;52.022;5.582;2023-08-06T03:15:15;10.60;;;6.82;;
67762;SDS011;54566;52.022;5.582;2023-08-06T03:17:41;11.52;;;7.05;;
67762;SDS011;54566;52.022;5.582;2023-08-06T03:20:09;10.27;;;7.22;;
67762;SDS011;54566;52.022;5.582;2023-08-06T03:22:35;13.65;;;6.65;;
67762;SDS011;54566;52.022;5.582;2023-08-06T03:25:02;9.65;;;6.88;;
67762;SDS011;54566;52.022;5.582;2023-08-06T03:27:28;10.07;;;6.95;;
67762;SDS011;54566;52.022;5.582;2023-08-06T03:29:54;9.80;;;6.90;;
67762;SDS011;54566;52.022;5.582;2023-08-06T03:32:20;10.70;;;6.80;;
67762;SDS011;54566;52.022;5.582;2023-08-06T03:34:46;10.23;;;7.00;;
67762;SDS011;54566;52.022;5.582;2023-08-06T03:37:12;11.43;;;7.53;;
67762;SDS011;54566;52.022;5.582;2023-08-06T03:39:39;9.48;;;7.57;;
67762;SDS011;54566;52.022;5.582;2023-08-06T03:42:05;13.40;;;7.50;;
67762;SDS011;54566;52.022;5.582;2023-08-06T03:44:31;10.77;;;7.60;;
67762;SDS011;54566;52.022;5.582;2023-08-06T03:46:57;11.05;;;7.45;;
67762;SDS011;54566;52.022;5.582;2023-08-06T03:49:23;9.60;;;7.45;;
67762;SDS011;54566;52.022;5.582;2023-08-06T03:51:49;11.32;;;7.63;;
67762;SDS011;54566;52.022;5.582;2023-08-06T03:54:15;13.20;;;7.40;;
67762;SDS011;54566;52.022;5.582;2023-08-06T03:56:41;13.13;;;7.80;;
67762;SDS011;54566;52.022;5.582;2023-08-06T03:59:07;12.80;;;7.45;;
67762;SDS011;54566;52.022;5.582;2023-08-06T04:01:33;9.05;;;7.22;;
67762;SDS011;54566;52.022;5.582;2023-08-06T04:03:59;10.07;;;7.05;;
67762;SDS011;54566;52.022;5.582;2023-08-06T04:06:25;12.05;;;7.35;;
67762;SDS011;54566;52.022;5.582;2023-08-06T04:08:51;10.68;;;6.60;;
67762;SDS011;54566;52.022;5.582;2023-08-06T04:11:17;9.13;;;6.90;;
67762;SDS011;54566;52.022;5.582;2023-08-06T04:13:43;11.43;;;7.70;;
67762;SDS011;54566;52.022;5.582;2023-08-06T04:16:10;11.23;;;6.75;;
67762;SDS011;54566;52.022;5.582;2023-08-06T04:18:36;11.32;;;7.15;;
67762;SDS011;54566;52.022;5.582;2023-08-06T04:21:02;12.20;;;7.75;;
67762;SDS011;54566;52.022;5.582;2023-08-06T04:23:28;12.57;;;7.25;;
67762;SDS011;54566;52.022;5.582;2023-08-06T04:25:56;9.73;;;7.85;;
67762;SDS011;54566;52.022;5.582;2023-08-06T04:28:22;10.05;;;7.28;;
67762;SDS011;54566;52.022;5.582;2023-08-06T04:30:48;10.98;;;7.57;;
67762;SDS011;54566;52.022;5.582;2023-08-06T04:33:14;10.55;;;7.82;;
67762;SDS011;54566;52.022;5.582;2023-08-06T04:35:40;9.32;;;7.30;;
67762;SDS011;54566;52.022;5.582;2023-08-06T04:38:06;11.23;;;8.43;;
67762;SDS011;54566;52.022;5.582;2023-08-06T04:40:34;12.23;;;8.65;;
67762;SDS011;54566;52.022;5.582;2023-08-06T04:43:00;9.75;;;8.00;;
67762;SDS011;54566;52.022;5.582;2023-08-06T04:45:26;12.73;;;7.55;;
67762;SDS011;54566;52.022;5.582;2023-08-06T04:47:52;11.07;;;8.07;;
67762;SDS011;54566;52.022;5.582;2023-08-06T04:50:21;11.15;;;7.57;;
67762;SDS011;54566;52.022;5.582;2023-08-06T04:52:47;11.15;;;8.07;;
67762;SDS011;54566;52.022;5.582;2023-08-06T04:55:13;11.25;;;8.13;;
67762;SDS011;54566;52.022;5.582;2023-08-06T04:57:39;13.05;;;8.98;;
67762;SDS011;54566;52.022;5.582;2023-08-06T05:00:06;13.35;;;8.75;;
67762;SDS011;54566;52.022;5.582;2023-08-06T05:02:32;12.82;;;9.00;;
67762;SDS011;54566;52.022;5.582;2023-08-06T05:04:59;16.60;;;9.20;;
67762;SDS011;54566;52.022;5.582;2023-08-06T05:07:25;12.00;;;8.07;;
67762;SDS011;54566;52.022;5.582;2023-08-06T05:09:51;12.18;;;8.13;;
67762;SDS011;54566;52.022;5.582;2023-08-06T05:12:18;13.45;;;8.45;;
67762;SDS011;54566;52.022;5.582;2023-08-06T05:14:44;11.68;;;8.20;;
67762;SDS011;54566;52.022;5.582;2023-08-06T05:17:10;13.27;;;8.77;;
67762;SDS011;54566;52.022;5.582;2023-08-06T05:19:36;14.38;;;8.43;;
67762;SDS011;54566;52.022;5.582;2023-08-06T05:22:02;15.50;;;8.55;;
67762;SDS011;54566;52.022;5.582;2023-08-06T05:24:28;14.98;;;8.85;;
67762;SDS011;54566;52.022;5.582;2023-08-06T05:26:54;13.73;;;8.73;;
67762;SDS011;54566;52.022;5.582;2023-08-06T05:29:20;15.40;;;9.68;;
67762;SDS011;54566;52.022;5.582;2023-08-06T05:31:46;13.63;;;8.98;;
67762;SDS011;54566;52.022;5.582;2023-08-06T05:34:12;11.77;;;9.38;;
67762;SDS011;54566;52.022;5.582;2023-08-06T05:36:38;13.68;;;9.52;;
67762;SDS011;54566;52.022;5.582;2023-08-06T05:39:04;15.18;;;9.65;;
67762;SDS011;54566;52.022;5.582;2023-08-06T05:41:30;14.27;;;10.18;;
67762;SDS011;54566;52.022;5.582;2023-08-06T05:43:56;19.45;;;10.30;;
67762;SDS011;54566;52.022;5.582;2023-08-06T05:46:22;15.93;;;10.48;;
67762;SDS011;54566;52.022;5.582;2023-08-06T05:48:48;18.40;;;9.77;;
67762;SDS011;54566;52.022;5.582;2023-08-06T05:51:16;16.75;;;9.85;;
67762;SDS011;54566;52.022;5.582;2023-08-06T05:53:42;12.32;;;10.10;;
67762;SDS011;54566;52.022;5.582;2023-08-06T05:56:08;13.68;;;10.43;;
67762;SDS011;54566;52.022;5.582;2023-08-06T05:58:34;16.10;;;9.88;;
67762;SDS011;54566;52.022;5.582;2023-08-06T06:01:00;15.85;;;10.13;;
67762;SDS011;54566;52.022;5.582;2023-08-06T06:03:26;18.02;;;10.82;;
67762;SDS011;54566;52.022;5.582;2023-08-06T06:05:52;14.68;;;10.52;;
67762;SDS011;54566;52.022;5.582;2023-08-06T06:08:18;13.90;;;11.00;;
67762;SDS011;54566;52.022;5.582;2023-08-06T06:10:44;16.58;;;12.25;;
67762;SDS011;54566;52.022;5.582;2023-08-06T06:13:10;14.07;;;10.85;;
67762;SDS011;54566;52.022;5.582;2023-08-06T06:15:36;17.80;;;11.95;;
67762;SDS011;54566;52.022;5.582;2023-08-06T06:18:03;18.23;;;11.88;;
67762;SDS011;54566;52.022;5.582;2023-08-06T06:20:29;17.65;;;12.07;;
67762;SDS011;54566;52.022;5.582;2023-08-06T06:22:55;15.48;;;11.32;;
67762;SDS011;54566;52.022;5.582;2023-08-06T06:25:21;16.77;;;11.65;;
67762;SDS011;54566;52.022;5.582;2023-08-06T06:27:47;13.60;;;11.18;;
67762;SDS011;54566;52.022;5.582;2023-08-06T06:30:13;16.30;;;12.13;;
67762;SDS011;54566;52.022;5.582;2023-08-06T06:32:39;16.85;;;12.18;;
67762;SDS011;54566;52.022;5.582;2023-08-06T06:35:06;15.27;;;11.48;;
67762;SDS011;54566;52.022;5.582;2023-08-06T06:37:32;14.80;;;11.07;;
67762;SDS011;54566;52.022;5.582;2023-08-06T06:39:58;21.42;;;13.25;;
67762;SDS011;54566;52.022;5.582;2023-08-06T06:42:25;18.88;;;12.88;;
67762;SDS011;54566;52.022;5.582;2023-08-06T06:44:51;22.88;;;12.45;;
67762;SDS011;54566;52.022;5.582;2023-08-06T06:47:17;19.17;;;13.05;;
67762;SDS011;54566;52.022;5.582;2023-08-06T06:49:43;19.60;;;13.07;;
67762;SDS011;54566;52.022;5.582;2023-08-06T06:52:09;16.60;;;12.43;;
67762;SDS011;54566;52.022;5.582;2023-08-06T06:54:36;15.45;;;12.38;;
67762;SDS011;54566;52.022;5.582;2023-08-06T06:57:02;18.10;;;13.10;;
67762;SDS011;54566;52.022;5.582;2023-08-06T06:59:36;16.33;;;11.80;;
67762;SDS011;54566;52.022;5.582;2023-08-06T07:02:03;17.83;;;12.88;;
67762;SDS011;54566;52.022;5.582;2023-08-06T07:04:29;18.85;;;12.27;;
67762;SDS011;54566;52.022;5.582;2023-08-06T07:06:58;14.88;;;11.63;;
67762;SDS011;54566;52.022;5.582;2023-08-06T07:09:25;16.23;;;10.63;;
67762;SDS011;54566;52.022;5.582;2023-08-06T07:11:51;14.68;;;11.55;;
67762;SDS011;54566;52.022;5.582;2023-08-06T07:14:18;19.30;;;11.85;;
67762;SDS011;54566;52.022;5.582;2023-08-06T07:16:44;18.35;;;11.57;;
67762;SDS011;54566;52.022;5.582;2023-08-06T07:19:10;16.60;;;11.77;;
67762;SDS011;54566;52.022;5.582;2023-08-06T07:21:38;21.05;;;11.70;;
67762;SDS011;54566;52.022;5.582;2023-08-06T07:24:04;12.73;;;11.35;;
67762;SDS011;54566;52.022;5.582;2023-08-06T07:26:30;15.10;;;11.82;;
67762;SDS011;54566;52.022;5.582;2023-08-06T07:28:56;14.70;;;10.70;;
67762;SDS011;54566;52.022;5.582;2023-08-06T07:31:22;14.43;;;11.50;;
67762;SDS011;54566;52.022;5.582;2023-08-06T07:33:48;15.40;;;11.38;;
67762;SDS011;54566;52.022;5.582;2023-08-06T07:36:14;13.98;;;11.63;;
67762;SDS011;54566;52.022;5.582;2023-08-06T07:38:41;16.98;;;11.98;;
67762;SDS011;54566;52.022;5.582;2023-08-06T07:41:07;19.35;;;11.88;;
67762;SDS011;54566;52.022;5.582;2023-08-06T07:43:33;17.27;;;11.15;;
67762;SDS011;54566;52.022;5.582;2023-08-06T07:46:00;12.63;;;10.73;;
67762;SDS011;54566;52.022;5.582;2023-08-06T07:48:27;14.30;;;11.38;;
67762;SDS011;54566;52.022;5.582;2023-08-06T07:50:56;14.25;;;10.90;;
67762;SDS011;54566;52.022;5.582;2023-08-06T07:53:22;20.92;;;11.73;;
67762;SDS011;54566;52.022;5.582;2023-08-06T07:55:52;12.68;;;10.98;;
67762;SDS011;54566;52.022;5.582;2023-08-06T07:58:18;15.10;;;10.00;;
67762;SDS011;54566;52.022;5.582;2023-08-06T08:00:44;12.32;;;10.18;;
67762;SDS011;54566;52.022;5.582;2023-08-06T08:03:14;10.88;;;9.15;;
67762;SDS011;54566;52.022;5.582;2023-08-06T08:05:40;12.15;;;9.07;;
67762;SDS011;54566;52.022;5.582;2023-08-06T08:08:06;10.70;;;8.55;;
67762;SDS011;54566;52.022;5.582;2023-08-06T08:10:33;9.00;;;6.78;;
67762;SDS011;54566;52.022;5.582;2023-08-06T08:12:59;8.00;;;6.18;;
67762;SDS011;54566;52.022;5.582;2023-08-06T08:15:25;9.35;;;6.57;;
67762;SDS011;54566;52.022;5.582;2023-08-06T08:17:52;9.57;;;7.03;;
67762;SDS011;54566;52.022;5.582;2023-08-06T08:20:18;8.38;;;6.43;;
67762;SDS011;54566;52.022;5.582;2023-08-06T08:22:45;9.82;;;7.10;;
67762;SDS011;54566;52.022;5.582;2023-08-06T08:25:11;9.97;;;7.00;;
67762;SDS011;54566;52.022;5.582;2023-08-06T08:27:37;9.70;;;8.38;;
67762;SDS011;54566;52.022;5.582;2023-08-06T08:30:04;10.43;;;8.52;;
67762;SDS011;54566;52.022;5.582;2023-08-06T08:32:30;10.98;;;8.60;;
67762;SDS011;54566;52.022;5.582;2023-08-06T08:34:56;12.35;;;7.88;;
67762;SDS011;54566;52.022;5.582;2023-08-06T08:37:22;11.35;;;7.85;;
67762;SDS011;54566;52.022;5.582;2023-08-06T08:39:49;8.23;;;7.15;;
67762;SDS011;54566;52.022;5.582;2023-08-06T08:42:15;4.70;;;3.50;;
67762;SDS011;54566;52.022;5.582;2023-08-06T08:44:44;2.55;;;2.10;;
67762;SDS011;54566;52.022;5.582;2023-08-06T08:47:10;1.52;;;1.42;;
67762;SDS011;54566;52.022;5.582;2023-08-06T08:49:37;1.95;;;0.90;;
67762;SDS011;54566;52.022;5.582;2023-08-06T08:52:04;1.60;;;0.90;;
67762;SDS011;54566;52.022;5.582;2023-08-06T08:54:31;0.80;;;0.75;;
67762;SDS011;54566;52.022;5.582;2023-08-06T08:56:58;1.38;;;1.00;;
67762;SDS011;54566;52.022;5.582;2023-08-06T08:59:24;1.90;;;1.10;;
67762;SDS011;54566;52.022;5.582;2023-08-06T09:01:51;1.75;;;1.05;;
67762;SDS011;54566;52.022;5.582;2023-08-06T09:04:18;1.90;;;1.05;;
67762;SDS011;54566;52.022;5.582;2023-08-06T09:06:46;3.45;;;1.30;;
67762;SDS011;54566;52.022;5.582;2023-08-06T09:11:45;2.67;;;1.30;;
67762;SDS011;54566;52.022;5.582;2023-08-06T09:14:13;1.95;;;1.70;;
67762;SDS011;54566;52.022;5.582;2023-08-06T09:16:39;10.45;;;1.85;;
67762;SDS011;54566;52.022;5.582;2023-08-06T09:19:11;2.72;;;1.55;;
67762;SDS011;54566;52.022;5.582;2023-08-06T09:21:41;3.30;;;1.55;;
67762;SDS011;54566;52.022;5.582;2023-08-06T09:24:08;2.38;;;1.58;;
67762;SDS011;54566;52.022;5.582;2023-08-06T09:26:36;1.53;;;1.30;;
67762;SDS011;54566;52.022;5.582;2023-08-06T09:29:03;2.65;;;1.67;;
67762;SDS011;54566;52.022;5.582;2023-08-06T09:31:41;3.47;;;1.80;;
67762;SDS011;54566;52.022;5.582;2023-08-06T09:34:17;2.33;;;1.70;;
67762;SDS011;54566;52.022;5.582;2023-08-06T09:36:47;3.13;;;2.13;;
67762;SDS011;54566;52.022;5.582;2023-08-06T09:39:14;5.07;;;2.70;;
67762;SDS011;54566;52.022;5.582;2023-08-06T09:41:40;3.50;;;2.25;;
67762;SDS011;54566;52.022;5.582;2023-08-06T09:44:16;4.45;;;2.50;;
67762;SDS011;54566;52.022;5.582;2023-08-06T09:46:43;3.95;;;2.75;;
67762;SDS011;54566;52.022;5.582;2023-08-06T09:49:12;4.32;;;3.00;;
67762;SDS011;54566;52.022;5.582;2023-08-06T09:51:38;5.10;;;3.05;;
67762;SDS011;54566;52.022;5.582;2023-08-06T09:54:05;3.38;;;2.67;;
67762;SDS011;54566;52.022;5.582;2023-08-06T09:56:33;7.05;;;2.70;;
67762;SDS011;54566;52.022;5.582;2023-08-06T09:59:06;7.60;;;3.10;;
67762;SDS011;54566;52.022;5.582;2023-08-06T10:01:33;3.80;;;3.10;;
67762;SDS011;54566;52.022;5.582;2023-08-06T10:04:04;3.65;;;3.10;;
67762;SDS011;54566;52.022;5.582;2023-08-06T10:06:34;4.53;;;2.80;;
67762;SDS011;54566;52.022;5.582;2023-08-06T10:09:01;3.92;;;2.90;;
67762;SDS011;54566;52.022;5.582;2023-08-06T10:11:27;3.95;;;3.53;;
67762;SDS011;54566;52.022;5.582;2023-08-06T10:14:16;3.40;;;3.05;;
67762;SDS011;54566;52.022;5.582;2023-08-06T10:16:42;5.35;;;3.70;;
67762;SDS011;54566;52.022;5.582;2023-08-06T10:19:09;5.22;;;3.50;;
67762;SDS011;54566;52.022;5.582;2023-08-06T10:21:37;5.53;;;3.30;;
67762;SDS011;54566;52.022;5.582;2023-08-06T10:24:03;8.70;;;4.00;;
67762;SDS011;54566;52.022;5.582;2023-08-06T10:26:34;5.95;;;3.97;;
67762;SDS011;54566;52.022;5.582;2023-08-06T10:29:00;5.72;;;4.15;;
67762;SDS011;54566;52.022;5.582;2023-08-06T10:34:11;6.57;;;4.22;;
67762;SDS011;54566;52.022;5.582;2023-08-06T10:36:37;10.05;;;5.13;;
67762;SDS011;54566;52.022;5.582;2023-08-06T10:39:04;7.10;;;4.43;;
67762;SDS011;54566;52.022;5.582;2023-08-06T10:41:30;9.07;;;4.78;;
67762;SDS011;54566;52.022;5.582;2023-08-06T10:44:05;10.30;;;4.95;;
67762;SDS011;54566;52.022;5.582;2023-08-06T10:46:35;11.50;;;5.55;;
67762;SDS011;54566;52.022;5.582;2023-08-06T10:49:19;13.75;;;5.68;;
67762;SDS011;54566;52.022;5.582;2023-08-06T10:51:45;8.43;;;5.15;;
67762;SDS011;54566;52.022;5.582;2023-08-06T10:54:14;11.90;;;5.22;;
67762;SDS011;54566;52.022;5.582;2023-08-06T10:56:43;13.20;;;5.35;;
67762;SDS011;54566;52.022;5.582;2023-08-06T10:59:14;12.68;;;5.43;;
67762;SDS011;54566;52.022;5.582;2023-08-06T11:01:40;9.27;;;5.13;;
67762;SDS011;54566;52.022;5.582;2023-08-06T11:04:07;11.00;;;5.65;;
67762;SDS011;54566;52.022;5.582;2023-08-06T11:06:33;13.10;;;5.28;;
67762;SDS011;54566;52.022;5.582;2023-08-06T11:09:02;14.07;;;5.38;;
67762;SDS011;54566;52.022;5.582;2023-08-06T11:11:28;9.70;;;5.32;;
67762;SDS011;54566;52.022;5.582;2023-08-06T11:13:57;17.77;;;5.88;;
67762;SDS011;54566;52.022;5.582;2023-08-06T11:16:23;14.82;;;6.10;;
67762;SDS011;54566;52.022;5.582;2023-08-06T11:18:50;14.95;;;5.95;;
67762;SDS011;54566;52.022;5.582;2023-08-06T11:21:21;14.27;;;6.03;;
67762;SDS011;54566;52.022;5.582;2023-08-06T11:23:47;12.73;;;5.40;;
67762;SDS011;54566;52.022;5.582;2023-08-06T11:26:13;18.33;;;5.63;;
67762;SDS011;54566;52.022;5.582;2023-08-06T11:28:44;12.63;;;5.10;;
67762;SDS011;54566;52.022;5.582;2023-08-06T11:31:18;8.45;;;4.90;;
67762;SDS011;54566;52.022;5.582;2023-08-06T11:33:44;10.70;;;4.63;;
67762;SDS011;54566;52.022;5.582;2023-08-06T11:36:10;12.20;;;5.03;;
67762;SDS011;54566;52.022;5.582;2023-08-06T11:38:37;11.50;;;4.70;;
67762;SDS011;54566;52.022;5.582;2023-08-06T11:41:03;6.20;;;4.20;;
67762;SDS011;54566;52.022;5.582;2023-08-06T11:43:30;13.25;;;4.72;;
67762;SDS011;54566;52.022;5.582;2023-08-06T11:48:25;8.50;;;4.67;;
67762;SDS011;54566;52.022;5.582;2023-08-06T11:50:53;8.23;;;4.30;;
67762;SDS011;54566;52.022;5.582;2023-08-06T11:53:20;8.85;;;4.47;;
67762;SDS011;54566;52.022;5.582;2023-08-06T11:55:46;9.68;;;4.22;;
67762;SDS011;54566;52.022;5.582;2023-08-06T11:58:12;7.05;;;4.20;;
67762;SDS011;54566;52.022;5.582;2023-08-06T12:00:42;11.27;;;4.40;;
67762;SDS011;54566;52.022;5.582;2023-08-06T12:03:09;9.13;;;3.95;;
67762;SDS011;54566;52.022;5.582;2023-08-06T12:05:35;8.23;;;3.75;;
67762;SDS011;54566;52.022;5.582;2023-08-06T12:08:03;7.88;;;3.70;;
67762;SDS011;54566;52.022;5.582;2023-08-06T12:10:30;10.27;;;3.85;;
67762;SDS011;54566;52.022;5.582;2023-08-06T12:12:56;9.38;;;4.03;;
67762;SDS011;54566;52.022;5.582;2023-08-06T12:15:22;5.95;;;3.47;;
67762;SDS011;54566;52.022;5.582;2023-08-06T12:17:49;5.93;;;3.22;;
67762;SDS011;54566;52.022;5.582;2023-08-06T12:20:15;5.20;;;3.15;;
67762;SDS011;54566;52.022;5.582;2023-08-06T12:22:44;6.38;;;3.13;;
67762;SDS011;54566;52.022;5.582;2023-08-06T12:25:11;6.07;;;3.20;;
67762;SDS011;54566;52.022;5.582;2023-08-06T12:27:37;5.97;;;3.35;;
67762;SDS011;54566;52.022;5.582;2023-08-06T12:30:09;11.60;;;3.17;;
67762;SDS011;54566;52.022;5.582;2023-08-06T12:32:36;5.32;;;3.00;;
67762;SDS011;54566;52.022;5.582;2023-08-06T12:35:02;9.40;;;3.13;;
67762;SDS011;54566;52.022;5.582;2023-08-06T12:37:28;7.65;;;3.40;;
67762;SDS011;54566;52.022;5.582;2023-08-06T12:39:54;8.43;;;3.15;;
67762;SDS011;54566;52.022;5.582;2023-08-06T12:42:21;10.50;;;2.78;;
67762;SDS011;54566;52.022;5.582;2023-08-06T12:44:49;5.35;;;3.03;;
67762;SDS011;54566;52.022;5.582;2023-08-06T12:47:15;7.10;;;3.05;;
67762;SDS011;54566;52.022;5.582;2023-08-06T12:49:41;8.50;;;2.65;;
67762;SDS011;54566;52.022;5.582;2023-08-06T12:52:08;5.63;;;2.58;;
67762;SDS011;54566;52.022;5.582;2023-08-06T12:54:34;5.78;;;2.50;;
67762;SDS011;54566;52.022;5.582;2023-08-06T12:57:04;5.20;;;2.63;;
67762;SDS011;54566;52.022;5.582;2023-08-06T12:59:30;7.78;;;2.70;;
67762;SDS011;54566;52.022;5.582;2023-08-06T13:01:56;6.20;;;2.53;;
67762;SDS011;54566;52.022;5.582;2023-08-06T13:04:22;6.03;;;2.35;;
67762;SDS011;54566;52.022;5.582;2023-08-06T13:06:48;7.25;;;2.78;;
67762;SDS011;54566;52.022;5.582;2023-08-06T13:09:16;8.93;;;2.47;;
67762;SDS011;54566;52.022;5.582;2023-08-06T13:11:43;6.13;;;2.75;;
67762;SDS011;54566;52.022;5.582;2023-08-06T13:17:12;6.50;;;2.78;;
67762;SDS011;54566;52.022;5.582;2023-08-06T13:19:38;5.20;;;2.55;;
67762;SDS011;54566;52.022;5.582;2023-08-06T13:22:06;8.57;;;2.70;;
67762;SDS011;54566;52.022;5.582;2023-08-06T14:01:29;5.78;;;2.40;;
67762;SDS011;54566;52.022;5.582;2023-08-06T14:04:05;8.65;;;2.40;;
67762;SDS011;54566;52.022;5.582;2023-08-06T14:06:31;6.40;;;2.70;;
67762;SDS011;54566;52.022;5.582;2023-08-06T14:09:00;3.97;;;2.30;;
67762;SDS011;54566;52.022;5.582;2023-08-06T14:11:33;6.95;;;2.65;;
67762;SDS011;54566;52.022;5.582;2023-08-06T14:14:02;3.88;;;2.50;;
67762;SDS011;54566;52.022;5.582;2023-08-06T14:16:33;7.43;;;2.88;;
67762;SDS011;54566;52.022;5.582;2023-08-06T14:19:23;8.15;;;2.80;;
67762;SDS011;54566;52.022;5.582;2023-08-06T14:22:15;6.25;;;2.88;;
67762;SDS011;54566;52.022;5.582;2023-08-06T14:24:50;4.85;;;2.65;;
67762;SDS011;54566;52.022;5.582;2023-08-06T14:27:44;5.75;;;2.90;;
67762;SDS011;54566;52.022;5.582;2023-08-06T14:30:50;5.32;;;2.80;;
67762;SDS011;54566;52.022;5.582;2023-08-06T14:40:16;9.05;;;3.40;;
67762;SDS011;54566;52.022;5.582;2023-08-06T14:42:45;5.53;;;2.90;;
67762;SDS011;54566;52.022;5.582;2023-08-06T14:45:13;7.00;;;3.47;;
67762;SDS011;54566;52.022;5.582;2023-08-06T14:48:00;8.07;;;3.40;;
67762;SDS011;54566;52.022;5.582;2023-08-06T14:50:26;10.00;;;3.35;;
67762;SDS011;54566;52.022;5.582;2023-08-06T14:52:57;5.03;;;2.72;;
67762;SDS011;54566;52.022;5.582;2023-08-06T14:55:27;5.50;;;3.30;;
67762;SDS011;54566;52.022;5.582;2023-08-06T14:57:54;5.55;;;3.10;;
67762;SDS011;54566;52.022;5.582;2023-08-06T15:00:28;6.70;;;3.20;;
67762;SDS011;54566;52.022;5.582;2023-08-06T15:02:55;6.03;;;2.92;;
67762;SDS011;54566;52.022;5.582;2023-08-06T15:05:21;7.63;;;3.13;;
67762;SDS011;54566;52.022;5.582;2023-08-06T15:07:47;4.47;;;2.63;;
67762;SDS011;54566;52.022;5.582;2023-08-06T15:10:13;8.82;;;2.78;;
67762;SDS011;54566;52.022;5.582;2023-08-06T15:12:43;8.52;;;3.58;;
67762;SDS011;54566;52.022;5.582;2023-08-06T15:15:09;6.68;;;3.40;;
67762;SDS011;54566;52.022;5.582;2023-08-06T15:17:35;7.05;;;3.22;;
67762;SDS011;54566;52.022;5.582;2023-08-06T15:20:02;7.28;;;4.40;;
67762;SDS011;54566;52.022;5.582;2023-08-06T15:22:28;7.82;;;3.58;;
67762;SDS011;54566;52.022;5.582;2023-08-06T15:24:57;5.80;;;2.78;;
67762;SDS011;54566;52.022;5.582;2023-08-06T15:27:23;5.45;;;2.80;;
67762;SDS011;54566;52.022;5.582;2023-08-06T15:29:49;4.53;;;2.67;;
67762;SDS011;54566;52.022;5.582;2023-08-06T15:32:15;6.55;;;2.75;;
67762;SDS011;54566;52.022;5.582;2023-08-06T15:34:42;5.03;;;2.65;;
67762;SDS011;54566;52.022;5.582;2023-08-06T15:37:08;4.68;;;2.25;;
67762;SDS011;54566;52.022;5.582;2023-08-06T15:39:34;5.47;;;2.10;;
67762;SDS011;54566;52.022;5.582;2023-08-06T15:42:00;5.53;;;2.30;;
67762;SDS011;54566;52.022;5.582;2023-08-06T15:44:26;6.25;;;1.90;;